Terminal Aerodrome Forecast
Issued by NWS

Home | Current Version | Previous Version | Graphics & Text | Print | Product List | Glossary On
Versions: 1 2 3 4 5 6 7 8 9 10 11 12 13 14 15 16 17 18 19 20 21 22 23 24 25 26 27
000
FTUS43 KLOT 211500 AAA
TAFDPA
TAF AMD
KDPA 211500Z 2115/2212 35014KT P6SM BKN120
     FM212300 02012KT P6SM SCT040 BKN120
     FM220200 03012G17KT P6SM SCT020 BKN030=

USA.gov is the U.S. government's official web portal to all federal, state and local government web resources and services.